createdAt,value
2018-11-28T00:00:36.719Z,0
2018-11-28T00:01:46.650Z,0
2018-11-28T00:02:56.368Z,0
2018-11-28T00:04:06.336Z,0
2018-11-28T00:05:16.271Z,0
2018-11-28T00:06:26.219Z,0
2018-11-28T00:07:36.158Z,0
2018-11-28T00:08:46.105Z,0
2018-11-28T00:09:55.798Z,0
2018-11-28T00:11:05.502Z,0
2018-11-28T00:12:15.196Z,0
2018-11-28T00:13:25.149Z,0
2018-11-28T00:14:34.836Z,0
2018-11-28T00:15:44.538Z,0
2018-11-28T00:16:54.224Z,0
2018-11-28T00:18:03.924Z,0
2018-11-28T00:19:13.875Z,0
2018-11-28T00:20:23.311Z,0
2018-11-28T00:21:33.607Z,0
2018-11-28T00:22:43.317Z,0
2018-11-28T00:23:53.009Z,0
2018-11-28T00:25:02.694Z,0
2018-11-28T00:26:12.390Z,0
2018-11-28T00:27:21.830Z,0
2018-11-28T00:28:31.516Z,0
2018-11-28T00:29:41.508Z,0
2018-11-28T00:30:51.448Z,0
2018-11-28T00:32:01.389Z,0
2018-11-28T00:33:11.090Z,0
2018-11-28T00:34:20.773Z,0
2018-11-28T00:35:30.762Z,0
2018-11-28T00:36:40.712Z,0
2018-11-28T00:37:50.652Z,0
2018-11-28T00:39:00.089Z,0
2018-11-28T00:40:10.027Z,0
2018-11-28T00:41:19.716Z,0
2018-11-28T00:42:29.708Z,0
2018-11-28T00:43:39.638Z,0
2018-11-28T00:44:49.574Z,0
2018-11-28T00:45:59.273Z,0
2018-11-28T00:47:09.218Z,0
2018-11-28T00:48:19.160Z,0
2018-11-28T00:49:29.108Z,0
2018-11-28T00:50:39.054Z,0
2018-11-28T00:51:48.749Z,0
2018-11-28T00:52:58.693Z,0
2018-11-28T00:54:08.384Z,0
2018-11-28T00:55:18.323Z,0
2018-11-28T00:56:28.017Z,0
2018-11-28T00:57:37.955Z,0
2018-11-28T00:58:47.901Z,0
2018-11-28T00:59:57.640Z,0
2018-11-28T01:01:07.581Z,0
2018-11-28T01:02:17.015Z,0
2018-11-28T01:03:26.956Z,0
2018-11-28T01:04:36.891Z,0
2018-11-28T01:05:46.062Z,0
2018-11-28T01:06:55.737Z,0
2018-11-28T01:08:05.422Z,0
2018-11-28T01:09:15.365Z,0
2018-11-28T01:10:25.309Z,0
2018-11-28T01:11:34.754Z,0
2018-11-28T01:12:44.701Z,0
2018-11-28T01:13:54.631Z,0
2018-11-28T01:15:04.566Z,0
2018-11-28T01:16:14.504Z,0
2018-11-28T01:17:23.943Z,0
2018-11-28T01:18:33.142Z,0
2018-11-28T01:19:42.573Z,0
2018-11-28T01:20:52.580Z,0
2018-11-28T01:22:02.580Z,0
2018-11-28T01:23:12.516Z,0
2018-11-28T01:24:22.450Z,0
2018-11-28T01:25:32.144Z,0
2018-11-28T01:26:41.823Z,0
2018-11-28T01:27:51.510Z,0
2018-11-28T01:29:01.214Z,0
2018-11-28T01:30:11.147Z,0
2018-11-28T01:31:20.880Z,0
2018-11-28T01:32:30.311Z,0
2018-11-28T01:33:40.251Z,0
2018-11-28T01:34:49.962Z,0
2018-11-28T01:35:59.907Z,0
2018-11-28T01:37:09.838Z,0
2018-11-28T01:38:19.280Z,0
2018-11-28T01:39:29.231Z,0
2018-11-28T01:40:39.179Z,0
2018-11-28T01:41:49.103Z,0
2018-11-28T01:42:59.063Z,0
2018-11-28T01:44:09.009Z,0
2018-11-28T01:45:18.451Z,0
2018-11-28T01:46:27.883Z,0
2018-11-28T01:47:37.826Z,0
2018-11-28T01:48:47.278Z,0
2018-11-28T01:49:57.207Z,0
2018-11-28T01:51:07.160Z,0
2018-11-28T01:52:16.608Z,0
2018-11-28T01:53:26.569Z,0
2018-11-28T01:54:36.509Z,0
2018-11-28T01:55:46.462Z,0
2018-11-28T01:56:56.407Z,0
2018-11-28T01:58:06.341Z,0
2018-11-28T01:59:16.276Z,0
2018-11-28T02:00:26.238Z,0
2018-11-28T02:01:36.182Z,0
2018-11-28T02:02:45.857Z,0
2018-11-28T02:03:55.546Z,0
2018-11-28T02:05:05.477Z,0
2018-11-28T02:06:15.423Z,0
2018-11-28T02:07:24.857Z,0
2018-11-28T02:08:34.811Z,0
2018-11-28T02:09:44.747Z,0
2018-11-28T02:10:54.680Z,0
2018-11-28T02:12:04.363Z,0
2018-11-28T02:13:14.054Z,0
2018-11-28T02:14:23.742Z,0
2018-11-28T02:15:33.685Z,0
2018-11-28T02:16:43.361Z,0
2018-11-28T02:17:53.305Z,0
2018-11-28T02:19:02.996Z,0
2018-11-28T02:20:12.943Z,0
2018-11-28T02:21:22.891Z,0
2018-11-28T02:22:32.590Z,0
2018-11-28T02:23:42.536Z,0
2018-11-28T02:24:52.223Z,0
2018-11-28T02:26:02.168Z,0
2018-11-28T02:27:11.857Z,0
2018-11-28T02:28:21.545Z,0
2018-11-28T02:29:31.330Z,0
2018-11-28T02:30:41.294Z,0
2018-11-28T02:31:50.992Z,0
2018-11-28T02:33:00.955Z,0
2018-11-28T02:34:10.886Z,0
2018-11-28T02:35:20.326Z,0
2018-11-28T02:36:30.117Z,0
2018-11-28T02:37:40.068Z,0
2018-11-28T02:38:49.791Z,0
2018-11-28T02:39:59.740Z,0
2018-11-28T02:41:09.447Z,0
2018-11-28T02:42:19.411Z,0
2018-11-28T02:43:28.853Z,0
2018-11-28T02:44:38.823Z,0
2018-11-28T02:45:48.769Z,0
2018-11-28T02:46:58.479Z,0
2018-11-28T02:48:07.921Z,0
2018-11-28T02:49:17.885Z,0
2018-11-28T02:50:27.629Z,0
2018-11-28T02:51:37.926Z,0
2018-11-28T02:52:48.009Z,0
2018-11-28T02:53:57.961Z,0
2018-11-28T02:55:07.906Z,0
2018-11-28T02:56:17.643Z,0
2018-11-28T02:57:27.609Z,0
2018-11-28T02:58:37.551Z,0
2018-11-28T02:59:47.551Z,0
2018-11-28T03:00:56.761Z,0
2018-11-28T03:02:06.727Z,0
2018-11-28T03:03:16.676Z,0
2018-11-28T03:04:26.645Z,0
2018-11-28T03:05:36.596Z,0
2018-11-28T03:06:46.298Z,0
2018-11-28T03:07:56.251Z,0
2018-11-28T03:09:06.196Z,0
2018-11-28T03:10:15.909Z,0
2018-11-28T03:11:25.615Z,0
2018-11-28T03:12:35.562Z,0
2018-11-28T03:13:45.517Z,0
2018-11-28T03:14:55.467Z,0
2018-11-28T03:16:05.426Z,0
2018-11-28T03:17:14.876Z,0
2018-11-28T03:18:24.347Z,0
2018-11-28T03:19:34.290Z,0
2018-11-28T03:20:44.248Z,0
2018-11-28T03:21:54.209Z,0
2018-11-28T03:23:04.188Z,0
2018-11-28T03:24:13.886Z,0
2018-11-28T03:25:23.865Z,0
2018-11-28T03:26:33.834Z,0
2018-11-28T03:27:43.534Z,0
2018-11-28T03:28:53.500Z,0
2018-11-28T03:30:03.455Z,0
2018-11-28T03:31:13.405Z,0
2018-11-28T03:32:23.443Z,0
2018-11-28T03:33:33.445Z,0
2018-11-28T03:34:47.894Z,0
2018-11-28T03:35:57.841Z,0
2018-11-28T03:37:07.811Z,0
2018-11-28T03:38:17.764Z,0
2018-11-28T03:39:27.465Z,0
2018-11-28T03:40:37.421Z,0
2018-11-28T03:41:47.121Z,0
2018-11-28T03:42:56.829Z,0
2018-11-28T03:44:06.803Z,0
2018-11-28T03:45:16.768Z,0
2018-11-28T03:46:26.722Z,0
2018-11-28T03:47:36.427Z,0
2018-11-28T03:48:46.367Z,0
2018-11-28T03:49:56.057Z,0
2018-11-28T03:51:07.873Z,0
2018-11-28T03:52:29.296Z,0
2018-11-28T03:53:39.001Z,0
2018-11-28T03:54:48.687Z,0
2018-11-28T03:55:58.185Z,0
2018-11-28T03:57:07.633Z,0
2018-11-28T03:58:17.589Z,0
2018-11-28T03:59:27.545Z,0
2018-11-28T04:00:36.985Z,0
2018-11-28T04:01:46.684Z,0
2018-11-28T04:02:56.421Z,0
2018-11-28T04:04:06.355Z,0
2018-11-28T04:05:16.065Z,0
2018-11-28T04:06:26.027Z,0
2018-11-28T04:07:35.971Z,0
2018-11-28T04:08:45.915Z,0
2018-11-28T04:09:55.606Z,0
2018-11-28T04:11:05.037Z,0
2018-11-28T04:12:14.970Z,0
2018-11-28T04:13:24.661Z,0
2018-11-28T04:14:34.363Z,0
2018-11-28T04:15:44.055Z,0
2018-11-28T04:16:54.000Z,0
2018-11-28T04:18:03.947Z,0
2018-11-28T04:19:14.006Z,0
2018-11-28T04:20:23.722Z,0
2018-11-28T04:21:33.175Z,0
2018-11-28T04:22:42.361Z,0
2018-11-28T04:23:52.322Z,0
2018-11-28T04:25:02.269Z,0
2018-11-28T04:26:11.964Z,0
2018-11-28T04:27:21.911Z,0
2018-11-28T04:28:31.858Z,0
2018-11-28T04:29:41.556Z,0
2018-11-28T04:30:50.743Z,0
2018-11-28T04:32:00.779Z,0
2018-11-28T04:33:10.479Z,0
2018-11-28T04:34:20.410Z,0
2018-11-28T04:35:29.863Z,0
2018-11-28T04:36:39.556Z,0
2018-11-28T04:37:49.058Z,0
2018-11-28T04:38:59.016Z,0
2018-11-28T04:40:08.460Z,0
2018-11-28T04:41:17.651Z,0
2018-11-28T04:42:27.591Z,0
2018-11-28T04:43:37.051Z,0
2018-11-28T04:44:46.996Z,0
2018-11-28T04:45:56.935Z,0
2018-11-28T04:47:06.875Z,0
2018-11-28T04:48:16.324Z,0
2018-11-28T04:49:25.497Z,0
2018-11-28T04:50:35.491Z,0
2018-11-28T04:51:45.194Z,0
2018-11-28T04:52:54.392Z,0
2018-11-28T04:54:04.107Z,0
2018-11-28T04:55:14.070Z,0
2018-11-28T04:56:23.748Z,0
2018-11-28T04:57:33.686Z,0
2018-11-28T04:58:43.387Z,0
2018-11-28T04:59:52.576Z,0
2018-11-28T05:01:02.259Z,0
2018-11-28T05:02:12.197Z,0
2018-11-28T05:03:21.885Z,0
2018-11-28T05:04:31.836Z,0
2018-11-28T05:05:41.533Z,0
2018-11-28T05:06:51.463Z,0
2018-11-28T05:08:01.413Z,0
2018-11-28T05:09:11.383Z,0
2018-11-28T05:10:21.329Z,0
2018-11-28T05:11:31.017Z,0
2018-11-28T05:12:40.707Z,0
2018-11-28T05:13:50.397Z,0
2018-11-28T05:15:00.229Z,0
2018-11-28T05:16:10.169Z,0
2018-11-28T05:17:20.107Z,0
2018-11-28T05:18:29.281Z,0
2018-11-28T05:19:38.990Z,0
2018-11-28T05:20:48.675Z,0
2018-11-28T05:21:58.623Z,0
2018-11-28T05:23:08.565Z,0
2018-11-28T05:24:18.502Z,0
2018-11-28T05:25:28.441Z,0
2018-11-28T05:26:38.117Z,0
2018-11-28T05:27:48.089Z,0
2018-11-28T05:28:57.779Z,0
2018-11-28T05:30:07.462Z,0
2018-11-28T05:31:17.152Z,0
2018-11-28T05:32:27.081Z,0
2018-11-28T05:33:37.021Z,0
2018-11-28T05:34:46.729Z,0
2018-11-28T05:35:56.407Z,0
2018-11-28T05:37:06.347Z,0
2018-11-28T05:38:16.035Z,0
2018-11-28T05:39:25.473Z,0
2018-11-28T05:40:35.185Z,0
2018-11-28T05:41:45.634Z,0
2018-11-28T05:42:55.319Z,0
2018-11-28T05:44:05.004Z,0
2018-11-28T05:45:14.693Z,0
2018-11-28T05:46:24.637Z,0
2018-11-28T05:47:34.590Z,0
2018-11-28T05:48:44.579Z,0
2018-11-28T05:49:54.321Z,0
2018-11-28T05:51:04.056Z,0
2018-11-28T05:52:13.998Z,0
2018-11-28T05:53:23.953Z,0
2018-11-28T05:54:33.967Z,0
2018-11-28T05:55:43.662Z,0
2018-11-28T05:56:53.342Z,0
2018-11-28T05:58:03.052Z,0
2018-11-28T05:59:13.069Z,0
2018-11-28T06:00:23.007Z,0
2018-11-28T06:01:32.700Z,0
2018-11-28T06:02:42.393Z,0
2018-11-28T06:03:52.097Z,0
2018-11-28T06:05:01.800Z,0
2018-11-28T06:06:11.748Z,0
2018-11-28T06:07:21.691Z,0
2018-11-28T06:08:31.133Z,0
2018-11-28T06:09:40.843Z,0
2018-11-28T06:10:50.296Z,0
2018-11-28T06:12:00.240Z,0
2018-11-28T06:13:09.955Z,0
2018-11-28T06:14:19.650Z,0
2018-11-28T06:15:29.344Z,0
2018-11-28T06:16:39.050Z,0
2018-11-28T06:17:48.984Z,0
2018-11-28T06:18:58.935Z,0
2018-11-28T06:20:08.878Z,0
2018-11-28T06:21:18.836Z,0
2018-11-28T06:22:28.268Z,0
2018-11-28T06:23:37.990Z,0
2018-11-28T06:24:47.922Z,0
2018-11-28T06:25:57.855Z,0
2018-11-28T06:27:07.544Z,0
2018-11-28T06:28:17.238Z,0
2018-11-28T06:29:27.196Z,0
2018-11-28T06:30:37.136Z,0
2018-11-28T06:31:47.088Z,0
2018-11-28T06:33:00.965Z,0
2018-11-28T06:34:10.954Z,0
2018-11-28T06:35:20.888Z,0
2018-11-28T06:36:30.836Z,5
2018-11-28T06:37:40.783Z,5
2018-11-28T06:38:50.718Z,5
2018-11-28T06:40:00.422Z,5
2018-11-28T06:41:10.128Z,5
2018-11-28T06:42:19.563Z,5
2018-11-28T06:43:29.521Z,10
2018-11-28T06:44:39.465Z,10
2018-11-28T06:45:49.427Z,10
2018-11-28T06:46:59.401Z,10
2018-11-28T06:48:09.149Z,15
2018-11-28T06:49:19.149Z,15
2018-11-28T06:50:28.594Z,15
2018-11-28T06:51:38.682Z,15
2018-11-28T06:52:48.776Z,20
2018-11-28T06:53:58.732Z,20
2018-11-28T06:55:08.750Z,20
2018-11-28T06:56:18.763Z,25
2018-11-28T06:57:28.781Z,25
2018-11-28T06:58:38.230Z,25
2018-11-28T06:59:48.201Z,30
2018-11-28T07:00:57.928Z,30
2018-11-28T07:02:07.896Z,35
2018-11-28T07:03:17.834Z,35
2018-11-28T07:04:27.828Z,40
2018-11-28T07:05:37.781Z,40
2018-11-28T07:06:47.740Z,40
2018-11-28T07:07:57.676Z,45
2018-11-28T07:09:07.374Z,45
2018-11-28T07:10:17.098Z,45
2018-11-28T07:11:27.039Z,50
2018-11-28T07:12:36.735Z,50
2018-11-28T07:13:46.682Z,55
2018-11-28T07:14:56.154Z,55
2018-11-28T07:16:06.124Z,60
2018-11-28T07:17:16.068Z,60
2018-11-28T07:18:25.521Z,65
2018-11-28T07:19:35.490Z,65
2018-11-28T07:20:45.420Z,65
2018-11-28T07:21:55.355Z,70
2018-11-28T07:23:05.379Z,70
2018-11-28T07:24:15.332Z,75
2018-11-28T07:25:25.327Z,75
2018-11-28T07:26:35.048Z,75
2018-11-28T07:27:49.951Z,80
2018-11-28T07:28:59.916Z,80
2018-11-28T07:30:09.877Z,85
2018-11-28T07:31:19.819Z,85
2018-11-28T07:32:29.795Z,90
2018-11-28T07:33:39.582Z,90
2018-11-28T07:34:49.274Z,95
2018-11-28T07:35:59.229Z,105
2018-11-28T07:37:09.205Z,115
2018-11-28T07:38:19.158Z,120
2018-11-28T07:39:29.110Z,120
2018-11-28T07:40:38.544Z,125
2018-11-28T07:41:48.504Z,130
2018-11-28T07:42:58.204Z,135
2018-11-28T07:44:07.416Z,140
2018-11-28T07:45:17.412Z,145
2018-11-28T07:46:27.121Z,145
2018-11-28T07:47:36.575Z,150
2018-11-28T07:48:46.597Z,150
2018-11-28T07:49:56.608Z,155
2018-11-28T07:51:06.569Z,155
2018-11-28T07:52:16.462Z,165
2018-11-28T07:53:26.414Z,170
2018-11-28T07:54:36.393Z,175
2018-11-28T07:55:46.475Z,175
2018-11-28T07:56:56.253Z,180
2018-11-28T07:58:05.713Z,180
2018-11-28T07:59:15.680Z,185
2018-11-28T08:00:25.713Z,195
2018-11-28T08:01:35.210Z,195
2018-11-28T08:02:44.921Z,195
2018-11-28T08:03:54.896Z,200
2018-11-28T08:05:04.433Z,200
2018-11-28T08:06:14.142Z,205
2018-11-28T08:07:24.087Z,210
2018-11-28T08:08:33.783Z,210
2018-11-28T08:09:43.521Z,215
2018-11-28T08:10:53.482Z,220
2018-11-28T08:12:02.926Z,225
2018-11-28T08:13:12.911Z,225
2018-11-28T08:14:22.886Z,230
2018-11-28T08:15:32.850Z,235
2018-11-28T08:16:42.544Z,240
2018-11-28T08:17:51.991Z,245
2018-11-28T08:19:01.961Z,240
2018-11-28T08:20:11.404Z,245
2018-11-28T08:21:20.855Z,250
2018-11-28T08:22:32.074Z,255
2018-11-28T08:23:41.767Z,265
2018-11-28T08:24:51.206Z,270
2018-11-28T08:26:01.166Z,275
2018-11-28T08:27:11.196Z,285
2018-11-28T08:28:22.235Z,295
2018-11-28T08:29:32.280Z,320
2018-11-28T08:30:41.977Z,355
2018-11-28T08:31:51.692Z,435
2018-11-28T08:33:01.157Z,445
2018-11-28T08:34:10.617Z,445
2018-11-28T08:35:20.592Z,455
2018-11-28T08:36:30.296Z,465
2018-11-28T08:37:39.990Z,470
2018-11-28T08:38:49.705Z,500
2018-11-28T08:39:59.648Z,500
2018-11-28T08:41:09.640Z,505
2018-11-28T08:42:19.391Z,530
2018-11-28T08:43:29.340Z,525
2018-11-28T08:44:39.300Z,540
2018-11-28T08:45:49.231Z,545
2018-11-28T08:46:59.193Z,560
2018-11-28T08:48:09.124Z,585
2018-11-28T08:49:19.051Z,585
2018-11-28T08:50:28.853Z,585
2018-11-28T08:51:39.851Z,585
2018-11-28T08:52:49.866Z,620
2018-11-28T08:53:59.823Z,625
2018-11-28T08:55:09.793Z,655
2018-11-28T08:56:19.740Z,660
2018-11-28T08:57:29.696Z,680
2018-11-28T08:58:39.427Z,685
2018-11-28T08:59:49.151Z,700
2018-11-28T09:00:58.873Z,695
2018-11-28T09:02:08.811Z,720
2018-11-28T09:03:18.537Z,710
2018-11-28T09:04:28.503Z,750
2018-11-28T09:05:38.453Z,705
2018-11-28T09:06:48.397Z,750
2018-11-28T09:07:58.107Z,765
2018-11-28T09:09:08.055Z,780
2018-11-28T09:10:18.123Z,815
2018-11-28T09:11:28.051Z,805
2018-11-28T09:12:37.747Z,795
2018-11-28T09:13:47.438Z,805
2018-11-28T09:14:57.390Z,805
2018-11-28T09:16:07.346Z,860
2018-11-28T09:17:22.479Z,885
2018-11-28T09:18:32.185Z,895
2018-11-28T09:19:42.166Z,880
2018-11-28T09:20:52.137Z,865
2018-11-28T09:22:01.833Z,875
2018-11-28T09:23:11.591Z,880
2018-11-28T09:24:21.287Z,910
2018-11-28T09:25:31.273Z,895
2018-11-28T09:26:41.231Z,845
2018-11-28T09:27:51.177Z,870
2018-11-28T09:29:00.631Z,950
2018-11-28T09:30:10.363Z,960
2018-11-28T09:31:20.354Z,970
2018-11-28T09:32:30.086Z,955
2018-11-28T09:33:40.127Z,965
2018-11-28T09:34:50.149Z,965
2018-11-28T09:35:59.691Z,975
2018-11-28T09:37:09.405Z,1035
2018-11-28T09:38:19.157Z,1005
2018-11-28T09:39:29.144Z,1005
2018-11-28T09:40:38.849Z,990
2018-11-28T09:41:48.813Z,995
2018-11-28T09:42:58.523Z,995
2018-11-28T09:44:08.220Z,1150
2018-11-28T09:45:17.689Z,1140
2018-11-28T09:46:27.402Z,980
2018-11-28T09:47:37.368Z,980
2018-11-28T09:48:47.352Z,930
2018-11-28T09:49:57.315Z,905
2018-11-28T09:51:07.021Z,875
2018-11-28T09:52:16.726Z,925
2018-11-28T09:53:26.748Z,1060
2018-11-28T09:54:36.477Z,1150
2018-11-28T09:55:46.167Z,1090
2018-11-28T09:56:55.882Z,1140
2018-11-28T09:58:05.598Z,1155
2018-11-28T09:59:15.544Z,1185
2018-11-28T10:00:25.265Z,1170
2018-11-28T10:01:35.304Z,1130
2018-11-28T10:02:45.257Z,1185
2018-11-28T10:03:55.203Z,1185
2018-11-28T10:05:09.732Z,1190
2018-11-28T10:06:19.447Z,1210
2018-11-28T10:07:29.410Z,1210
2018-11-28T10:08:39.107Z,1235
2018-11-28T10:09:49.068Z,1295
2018-11-28T10:10:59.033Z,1270
2018-11-28T10:12:08.994Z,1215
2018-11-28T10:13:18.973Z,1330
2018-11-28T10:14:28.922Z,1330
2018-11-28T10:15:44.689Z,1240
2018-11-28T10:16:58.123Z,1220
2018-11-28T10:18:08.287Z,1270
2018-11-28T10:19:17.993Z,1320
2018-11-28T10:20:27.695Z,1350
2018-11-28T10:21:37.677Z,1120
2018-11-28T10:22:47.629Z,1205
2018-11-28T10:23:57.127Z,1330
2018-11-28T10:25:07.073Z,1365
2018-11-28T10:26:17.025Z,1355
2018-11-28T10:27:26.720Z,1355
2018-11-28T10:28:36.682Z,1405
2018-11-28T10:29:46.387Z,1385
2018-11-28T10:30:56.317Z,1385
2018-11-28T10:32:06.477Z,1360
2018-11-28T10:33:16.560Z,1350
2018-11-28T10:34:31.981Z,1320
2018-11-28T10:35:42.005Z,1260
2018-11-28T10:36:52.087Z,1285
2018-11-28T10:38:02.245Z,1320
2018-11-28T10:39:12.068Z,1395
2018-11-28T10:40:22.157Z,1430
2018-11-28T10:41:32.356Z,1405
2018-11-28T10:42:42.425Z,1410
2018-11-28T10:43:52.538Z,1395
2018-11-28T10:45:02.553Z,1465
2018-11-28T10:46:12.532Z,1445
2018-11-28T10:47:22.296Z,1425
2018-11-28T10:48:32.270Z,1400
2018-11-28T10:49:42.226Z,1405
2018-11-28T10:50:52.086Z,1490
2018-11-28T10:52:02.805Z,1520
2018-11-28T10:53:12.815Z,1505
2018-11-28T10:54:22.785Z,1440
2018-11-28T10:55:32.752Z,1425
2018-11-28T10:56:42.714Z,1460
2018-11-28T10:57:52.418Z,1440
2018-11-28T10:59:02.403Z,1385
2018-11-28T11:00:12.111Z,1425
2018-11-28T11:01:22.063Z,1540
2018-11-28T11:02:31.563Z,1490
2018-11-28T11:03:41.270Z,1420
2018-11-28T11:04:52.237Z,1450
2018-11-28T11:06:01.953Z,1490
2018-11-28T11:07:11.917Z,1555
2018-11-28T11:08:21.390Z,1555
2018-11-28T11:09:31.373Z,1590
2018-11-28T11:10:41.343Z,1560
2018-11-28T11:11:51.068Z,1575
2018-11-28T11:13:01.026Z,1610
2018-11-28T11:14:10.978Z,1640
2018-11-28T11:15:20.960Z,1615
2018-11-28T11:16:30.429Z,1555
2018-11-28T11:17:40.157Z,1570
2018-11-28T11:18:49.902Z,1585
2018-11-28T11:19:59.872Z,1600
2018-11-28T11:21:09.987Z,1615
2018-11-28T11:22:19.720Z,1590
2018-11-28T11:23:29.832Z,1565
2018-11-28T11:24:39.797Z,1575
2018-11-28T11:25:49.772Z,1565
2018-11-28T11:26:59.728Z,1580
2018-11-28T11:28:09.231Z,1595
2018-11-28T11:29:18.953Z,1525
2018-11-28T11:30:28.661Z,1535
2018-11-28T11:31:38.676Z,1585
2018-11-28T11:32:48.939Z,1580
2018-11-28T11:33:58.979Z,1565
2018-11-28T11:35:08.467Z,1570
2018-11-28T11:36:18.194Z,1555
2018-11-28T11:37:28.151Z,1550
2018-11-28T11:38:37.861Z,1650
2018-11-28T11:39:47.335Z,1685
2018-11-28T11:40:57.288Z,1585
2018-11-28T11:42:07.239Z,1555
2018-11-28T11:43:17.291Z,1610
2018-11-28T11:44:27.256Z,1585
2018-11-28T11:45:37.478Z,1580
2018-11-28T11:46:46.679Z,1610
2018-11-28T11:47:56.142Z,1630
2018-11-28T11:49:06.593Z,1590
2018-11-28T11:50:16.401Z,1555
2018-11-28T11:51:26.647Z,1580
2018-11-28T11:52:37.230Z,1665
2018-11-28T11:53:47.227Z,1685
2018-11-28T11:54:56.943Z,1700
2018-11-28T11:56:06.911Z,1700
2018-11-28T11:57:16.623Z,1675
2018-11-28T11:58:26.595Z,1695
2018-11-28T11:59:36.547Z,1675
2018-11-28T12:00:46.265Z,1585
2018-11-28T12:02:01.827Z,1570
2018-11-28T12:03:11.578Z,1545
2018-11-28T12:04:21.529Z,1555
2018-11-28T12:05:31.509Z,1645
2018-11-28T12:06:41.025Z,1675
2018-11-28T12:07:51.004Z,1685
2018-11-28T12:09:00.953Z,1675
2018-11-28T12:10:15.793Z,1545
2018-11-28T12:11:25.497Z,1555
2018-11-28T12:12:35.282Z,1560
2018-11-28T12:13:44.745Z,1565
2018-11-28T12:14:54.502Z,1590
2018-11-28T12:16:04.467Z,1620
2018-11-28T12:17:15.630Z,1680
2018-11-28T12:18:25.590Z,1700
2018-11-28T12:19:35.555Z,1680
2018-11-28T12:20:45.572Z,1635
2018-11-28T12:21:55.541Z,1565
2018-11-28T12:23:05.268Z,1555
2018-11-28T12:24:15.259Z,1620
2018-11-28T12:25:24.958Z,1620
2018-11-28T12:26:34.940Z,1575
2018-11-28T12:27:45.074Z,1530
2018-11-28T12:28:54.778Z,1505
2018-11-28T12:30:04.738Z,1560
2018-11-28T12:31:14.706Z,1570
2018-11-28T12:32:24.432Z,1540
2018-11-28T12:33:34.143Z,1515
2018-11-28T12:34:50.287Z,1480
2018-11-28T12:36:00.473Z,1460
2018-11-28T12:37:09.925Z,1445
2018-11-28T12:38:19.617Z,1505
2018-11-28T12:39:30.645Z,1500
2018-11-28T12:40:40.596Z,1510
2018-11-28T12:41:50.307Z,1550
2018-11-28T12:43:00.273Z,1575
2018-11-28T12:44:09.987Z,1540
2018-11-28T12:45:19.956Z,1480
2018-11-28T12:46:29.928Z,1475
2018-11-28T12:47:39.636Z,1450
2018-11-28T12:48:49.383Z,1435
2018-11-28T12:50:00.336Z,1440
2018-11-28T12:51:10.292Z,1415
2018-11-28T12:52:20.252Z,1420
2018-11-28T12:53:29.966Z,1430
2018-11-28T12:54:39.678Z,1400
2018-11-28T12:55:49.664Z,1150
2018-11-28T12:56:59.651Z,930
2018-11-28T12:58:09.638Z,1315
2018-11-28T12:59:19.356Z,1385
2018-11-28T13:00:29.311Z,1385
2018-11-28T13:01:40.115Z,1340
2018-11-28T13:02:50.066Z,1365
2018-11-28T13:03:59.257Z,1420
2018-11-28T13:05:09.526Z,1415
2018-11-28T13:06:19.231Z,1415
2018-11-28T13:07:29.195Z,1350
2018-11-28T13:08:39.159Z,1305
2018-11-28T13:09:49.106Z,1300
2018-11-28T13:10:59.084Z,1235
2018-11-28T13:12:09.484Z,1250
2018-11-28T13:13:20.573Z,1260
2018-11-28T13:14:30.518Z,1300
2018-11-28T13:15:40.506Z,1310
2018-11-28T13:16:50.474Z,1235
2018-11-28T13:18:00.465Z,1235
2018-11-28T13:19:10.277Z,1230
2018-11-28T13:20:20.007Z,1175
2018-11-28T13:21:29.724Z,1160
2018-11-28T13:22:39.183Z,1185
2018-11-28T13:23:48.884Z,1225
2018-11-28T13:24:58.350Z,1210
2018-11-28T13:26:08.058Z,1170
2018-11-28T13:27:18.026Z,1180
2018-11-28T13:28:28.015Z,1165
2018-11-28T13:29:37.786Z,1145
2018-11-28T13:30:48.162Z,1110
2018-11-28T13:31:57.924Z,1095
2018-11-28T13:33:07.390Z,1085
2018-11-28T13:34:17.346Z,1075
2018-11-28T13:35:27.065Z,1065
2018-11-28T13:36:37.020Z,995
2018-11-28T13:37:46.748Z,1005
2018-11-28T13:38:56.712Z,1015
2018-11-28T13:40:06.207Z,1010
2018-11-28T13:41:15.900Z,1025
2018-11-28T13:42:25.861Z,1000
2018-11-28T13:43:35.876Z,985
2018-11-28T13:44:45.837Z,960
2018-11-28T13:45:55.538Z,935
2018-11-28T13:47:05.237Z,935
2018-11-28T13:48:15.460Z,885
2018-11-28T13:49:25.652Z,840
2018-11-28T13:50:35.110Z,810
2018-11-28T13:51:44.834Z,770
2018-11-28T13:52:54.796Z,770
2018-11-28T13:54:23.630Z,655
2018-11-28T13:57:04.153Z,730
2018-11-28T13:58:19.372Z,570
2018-11-28T13:59:28.835Z,580
2018-11-28T14:00:38.790Z,575
2018-11-28T14:01:48.748Z,515
2018-11-28T14:02:58.455Z,485
2018-11-28T14:04:08.150Z,445
2018-11-28T14:05:18.107Z,415
2018-11-28T14:06:28.083Z,370
2018-11-28T14:07:38.059Z,335
2018-11-28T14:08:48.014Z,265
2018-11-28T14:09:57.978Z,320
2018-11-28T14:11:07.683Z,405
2018-11-28T14:12:17.407Z,450
2018-11-28T14:13:27.490Z,455
2018-11-28T14:14:37.446Z,450
2018-11-28T14:15:47.398Z,385
2018-11-28T14:16:57.109Z,265
2018-11-28T14:18:07.056Z,250
2018-11-28T14:19:17.022Z,305
2018-11-28T14:20:26.971Z,230
2018-11-28T14:21:36.420Z,170
2018-11-28T14:22:46.129Z,125
2018-11-28T14:23:56.092Z,110
2018-11-28T14:25:05.801Z,105
2018-11-28T14:26:15.740Z,95
2018-11-28T14:27:25.478Z,90
2018-11-28T14:28:35.558Z,85
2018-11-28T14:29:45.542Z,85
2018-11-28T14:30:55.525Z,80
2018-11-28T14:32:05.569Z,75
2018-11-28T14:33:15.520Z,75
2018-11-28T14:34:24.977Z,70
2018-11-28T14:35:34.675Z,70
2018-11-28T14:36:44.188Z,65
2018-11-28T14:37:54.129Z,65
2018-11-28T14:39:03.622Z,60
2018-11-28T14:40:13.616Z,55
2018-11-28T14:41:23.355Z,55
2018-11-28T14:42:33.310Z,55
2018-11-28T14:43:43.017Z,55
2018-11-28T14:44:53.014Z,50
2018-11-28T14:46:02.956Z,45
2018-11-28T14:47:13.120Z,45
2018-11-28T14:48:23.083Z,40
2018-11-28T14:49:33.077Z,40
2018-11-28T14:50:43.032Z,35
2018-11-28T14:51:52.970Z,30
2018-11-28T14:53:02.691Z,30
2018-11-28T14:54:12.726Z,25
2018-11-28T14:55:22.675Z,25
2018-11-28T14:56:32.352Z,20
2018-11-28T14:57:42.356Z,20
2018-11-28T14:58:52.050Z,20
2018-11-28T15:00:01.995Z,15
2018-11-28T15:01:11.937Z,15
2018-11-28T15:02:21.636Z,15
2018-11-28T15:03:31.355Z,10
2018-11-28T15:04:41.326Z,10
2018-11-28T15:05:51.280Z,10
2018-11-28T15:07:01.271Z,10
2018-11-28T15:08:11.250Z,5
2018-11-28T15:09:21.202Z,5
2018-11-28T15:10:30.947Z,5
2018-11-28T15:11:41.062Z,5
2018-11-28T15:12:50.544Z,5
2018-11-28T15:14:00.230Z,5
2018-11-28T15:15:09.941Z,0
2018-11-28T15:16:19.945Z,0
2018-11-28T15:17:29.901Z,0
2018-11-28T15:18:39.350Z,0
2018-11-28T15:19:48.805Z,0
2018-11-28T15:20:58.759Z,0
2018-11-28T15:22:08.731Z,0
2018-11-28T15:23:18.430Z,0
2018-11-28T15:24:28.401Z,0
2018-11-28T15:25:37.854Z,0
2018-11-28T15:26:47.789Z,0
2018-11-28T15:27:57.742Z,0
2018-11-28T15:29:07.185Z,0
2018-11-28T15:30:16.890Z,0
2018-11-28T15:31:26.623Z,0
2018-11-28T15:32:36.337Z,0
2018-11-28T15:33:46.306Z,0
2018-11-28T15:35:00.341Z,0
2018-11-28T15:36:09.780Z,0
2018-11-28T15:37:19.487Z,0
2018-11-28T15:38:29.451Z,0
2018-11-28T15:39:39.384Z,0
2018-11-28T15:40:49.330Z,0
2018-11-28T15:41:59.310Z,0
2018-11-28T15:43:09.281Z,0
2018-11-28T15:44:19.944Z,0
2018-11-28T15:45:29.940Z,0
2018-11-28T15:46:39.648Z,0
2018-11-28T15:47:49.334Z,0
2018-11-28T15:48:59.051Z,0
2018-11-28T15:50:08.736Z,0
2018-11-28T15:51:18.706Z,0
2018-11-28T15:52:28.396Z,0
2018-11-28T15:53:38.399Z,0
2018-11-28T15:54:48.112Z,0
2018-11-28T15:55:58.071Z,0
2018-11-28T15:57:07.769Z,0
2018-11-28T15:58:17.759Z,0
2018-11-28T15:59:27.212Z,0
2018-11-28T16:00:36.947Z,0
2018-11-28T16:01:46.676Z,0
2018-11-28T16:02:56.528Z,0
2018-11-28T16:04:06.226Z,0
2018-11-28T16:05:15.953Z,0
2018-11-28T16:06:25.907Z,0
2018-11-28T16:07:35.872Z,0
2018-11-28T16:08:45.568Z,0
2018-11-28T16:09:55.273Z,0
2018-11-28T16:11:05.000Z,0
2018-11-28T16:12:14.928Z,0
2018-11-28T16:13:24.652Z,0
2018-11-28T16:14:33.844Z,0
2018-11-28T16:15:43.810Z,0
2018-11-28T16:16:54.632Z,0
2018-11-28T16:18:04.578Z,0
2018-11-28T16:19:14.531Z,0
2018-11-28T16:20:24.234Z,0
2018-11-28T16:21:33.919Z,0
2018-11-28T16:22:43.878Z,0
2018-11-28T16:23:53.572Z,0
2018-11-28T16:25:03.006Z,0
2018-11-28T16:26:12.447Z,0
2018-11-28T16:27:22.384Z,0
2018-11-28T16:28:31.617Z,0
2018-11-28T16:29:41.564Z,0
2018-11-28T16:30:51.503Z,0
2018-11-28T16:32:01.452Z,0
2018-11-28T16:33:11.393Z,0